Historyczne dane pomiarowe

Dodano dane terminowe – wersja testowa.

Dane z okresu 1951-2019

Wersja bazy: 1.34 [2019-03-16, lista zmian], aktualizacja planowana na 2019-04-15

Dane meteo z obszaru Polski uzyskane na podstawie danych udostępnionych przez Instytut Meteorologii i Gospodarki Wodnej – Państwowy Instytut Badawczy.

 

Wybierz Datę:    

       

TemperaturaWilgotnośćWiatrCiśnienieOpadyŚniegCzas trwania zjawisk
 Stacja t tx tn tng RH VA  wxwx mslp ppp RRR   cm mm wxwxwxwxwxwxwx
1999-08-14 15.9 23.0 9.1 6.9 62.8- 2.0 1.0---- 1.5------------
1999-08-13 15.0 19.5 10.3 7.6 72.0- 7.3 2.0---- 0.3------------
1999-08-12 15.2 20.5 10.6 8.8 71.0- 5.0 3.0---- 0.0------------
1999-08-11 18.5 23.6 13.9 10.9 71.8- 5.3 3.0---- 0.2------------
1999-08-10 20.9 25.5 16.5 14.3 72.8- 7.3 0.3---- 0.0------------
1999-08-09 21.5 27.4 16.5 13.9 66.3- 6.0 1.3---- 1.4------------
1999-08-08 23.7 30.5 17.8 16.1 63.8- 4.3 1.0---- 0.0------------
1999-08-07 22.3 30.5 12.6 10.4 64.3- 5.0 1.3---- 0.0------------
1999-08-06 23.4 28.6 18.5 16.3 68.0- 5.7 2.0---- 0.0------------
1999-08-05 20.7 29.0 11.1 9.1 62.5- 6.0 0.3---- 0.0------------
1999-08-04 19.2 29.0 9.7 7.8 62.0- 3.0 1.0---- 0.0------------
1999-08-03 18.9 28.5 9.9 7.0 58.0- 2.3 1.0---- 0.0------------
1999-08-02 20.6 27.8 13.6 10.4 61.3- 2.7 2.0---- 0.0------------
1999-08-01 21.3 28.3 14.4 12.1 59.3- 4.7 3.7---- 0.0------------
1999-07-31 21.7 28.3 13.8 10.9 55.3- 2.3 3.3---- 0.0------------
1999-07-30 20.5 27.2 12.9 10.6 65.3- 2.7 3.0---- 0.0------------
1999-07-29 19.8 25.8 13.1 11.7 65.0- 3.3 3.0---- 0.0------------
1999-07-28 18.9 26.0 11.8 9.1 64.8- 1.7 3.7---- 0.0------------
1999-07-27 18.8 23.8 14.0 13.4 64.8- 0.7 3.0---- 0.0------------
1999-07-26 20.4 29.0 13.4 10.8 75.0- 4.7 3.3---- 0.0------------
1999-07-25 20.1 26.8 12.2 10.2 71.0- 5.0 1.3---- 0.0------------
1999-07-24 17.6 21.6 14.1 13.4 70.8- 6.3 2.3---- 0.0------------
1999-07-23 16.1 21.2 11.8 9.9 83.0- 7.3 2.0---- 0.4------------
1999-07-22 19.3 24.2 16.5 12.6 65.0- 5.7 1.3---- 0.0------------
1999-07-21 22.5 28.8 17.2 15.3 68.8- 5.0 2.3---- 1.0------------
1999-07-20 22.4 32.4 14.7 11.2 64.0- 3.0 3.7---- 0.2------------
1999-07-19 22.2 30.5 14.4 11.1 64.0- 4.7 1.0---- 0.0------------
1999-07-18 21.1 29.0 12.9 9.9 68.8- 2.3 1.3---- 0.0------------
1999-07-17 18.9 26.0 11.1 8.9 62.5- 2.7 1.7---- 0.0------------
1999-07-16 16.7 22.3 11.1 8.9 72.8- 5.0 1.0---- 0.1------------
1999-07-15 16.8 21.6 13.2 12.1 73.5- 6.0 1.3---- 0.0------------
1999-07-14 20.2 26.0 17.0 14.2 83.8- 7.7 3.0---- 5.4------------
1999-07-13 21.6 28.0 17.5 14.3 74.5- 5.7 2.7---- 0.0------------
1999-07-12 23.2 30.0 17.0 13.7 65.8- 5.3 2.0---- 0.7------------
1999-07-11 21.3 26.5 15.3 12.3 63.5- 7.0 3.7---- 0.0------------
1999-07-10 20.7 26.0 15.8 13.4 59.0- 3.3 5.7---- 0.0------------
1999-07-09 19.8 24.1 16.1 14.4 66.8- 7.7 5.0---- 0.0------------
1999-07-08 16.8 18.6 16.0 14.4 78.0- 8.0 2.3---- 8.6------------
1999-07-07 19.2 24.5 17.0 15.6 75.8- 8.0 2.3---- 0.0------------
1999-07-06 24.0 29.6 18.5 15.0 62.8- 4.7 1.0---- 12.6------------
1999-07-05 24.0 32.4 16.5 13.4 63.0- 3.0 2.3---- 0.0------------
1999-07-04 21.9 31.0 14.9 11.4 67.0- 3.0 2.0---- 1.6------------
1999-07-03 20.0 26.8 13.1 10.8 64.5- 7.0 0.3---- 0.0------------
1999-07-02 19.0 24.3 15.5 13.3 71.8- 6.7 0.0---- 0.0------------
1999-07-01 20.0 25.0 16.5 13.8 77.0- 5.0 1.3---- 1.2------------
1999-06-30 19.8 27.6 11.4 7.9 64.8- 6.7 0.3---- 0.0------------
1999-06-29 18.6 24.2 11.9 9.9 73.8- 5.0 0.0---- 0.0------------
1999-06-28 20.3 27.5 14.9 11.0 74.5- 6.7 0.7---- 0.9------------
1999-06-27 21.4 26.6 14.4 10.6 60.0- 5.7 3.3---- 0.0------------
1999-06-26 14.5 20.7 6.8 4.4 70.0- 5.3 0.3---- 0.0------------
1999-06-25 14.9 18.2 9.7 6.5 64.0- 5.3 1.7---- 0.6------------
1999-06-24 13.4 18.1 5.6 3.0 59.0- 5.0 1.0---- 0.0------------
1999-06-23 13.5 17.8 9.6 8.4 70.0- 7.0 2.7---- 0.0------------
1999-06-22 11.2 14.0 9.6 9.1 92.5- 8.0 5.0---- 29.2------------
1999-06-21 16.1 20.7 13.3 11.3 77.3- 7.3 3.7---- 5.6------------
1999-06-20 17.9 22.1 13.9 12.6 84.5- 7.0 1.0---- 0.0------------
1999-06-19 16.8 19.5 14.4 13.3 85.0- 8.0 1.7---- 0.0------------
1999-06-18 16.6 20.9 12.7 10.4 91.8- 7.7 2.3---- 12.8------------
1999-06-17 19.1 22.4 16.0 13.4 81.3- 8.0 0.3---- 0.0------------
1999-06-16 18.2 22.5 14.3 12.5 68.3- 6.0 2.0---- 0.0------------
261.3 ms

 

Źródłem pochodzenia danych jest Instytut Meteorologii i Gospodarki Wodnej – Państwowy Instytut Badawczy. Dane Instytutu Meteorologii i Gospodarki Wodnej – Państwowego Instytutu Badawczego zostały przetworzone.

Dane źródłowe można odnaleźć na stronie https://dane.imgw.pl